sensor_id;sensor_type;location;lat;lon;timestamp;temperature;humidity
12386;DHT22;6257;57.634;18.310;2022-10-15T00:00:38;11.70;99.90
12386;DHT22;6257;57.634;18.310;2022-10-15T00:03:05;11.70;99.90
12386;DHT22;6257;57.634;18.310;2022-10-15T00:05:35;11.80;99.90
12386;DHT22;6257;57.634;18.310;2022-10-15T00:08:02;11.80;99.90
12386;DHT22;6257;57.634;18.310;2022-10-15T00:10:29;11.80;99.90
12386;DHT22;6257;57.634;18.310;2022-10-15T00:12:56;11.80;99.90
12386;DHT22;6257;57.634;18.310;2022-10-15T00:15:23;11.80;99.90
12386;DHT22;6257;57.634;18.310;2022-10-15T00:17:51;11.80;99.90
12386;DHT22;6257;57.634;18.310;2022-10-15T00:20:18;11.80;99.90
12386;DHT22;6257;57.634;18.310;2022-10-15T00:22:45;11.80;99.90
12386;DHT22;6257;57.634;18.310;2022-10-15T00:25:12;11.80;99.90
12386;DHT22;6257;57.634;18.310;2022-10-15T00:27:39;11.80;99.90
12386;DHT22;6257;57.634;18.310;2022-10-15T00:30:07;11.80;99.90
12386;DHT22;6257;57.634;18.310;2022-10-15T00:32:34;11.90;99.90
12386;DHT22;6257;57.634;18.310;2022-10-15T00:35:03;11.80;99.90
12386;DHT22;6257;57.634;18.310;2022-10-15T00:37:30;11.80;99.90
12386;DHT22;6257;57.634;18.310;2022-10-15T00:39:57;11.80;99.90
12386;DHT22;6257;57.634;18.310;2022-10-15T00:42:24;11.80;99.90
12386;DHT22;6257;57.634;18.310;2022-10-15T00:44:53;11.80;99.90
12386;DHT22;6257;57.634;18.310;2022-10-15T00:47:28;11.80;99.90
12386;DHT22;6257;57.634;18.310;2022-10-15T00:50:04;11.80;99.90
12386;DHT22;6257;57.634;18.310;2022-10-15T00:52:41;11.80;99.90
12386;DHT22;6257;57.634;18.310;2022-10-15T00:55:11;11.80;99.90
12386;DHT22;6257;57.634;18.310;2022-10-15T00:57:39;11.80;99.90
12386;DHT22;6257;57.634;18.310;2022-10-15T01:00:09;11.80;99.90
12386;DHT22;6257;57.634;18.310;2022-10-15T01:02:36;11.80;99.90
12386;DHT22;6257;57.634;18.310;2022-10-15T01:05:06;11.80;99.90
12386;DHT22;6257;57.634;18.310;2022-10-15T01:07:33;11.80;99.90
12386;DHT22;6257;57.634;18.310;2022-10-15T01:10:02;11.80;99.90
12386;DHT22;6257;57.634;18.310;2022-10-15T01:12:40;11.80;99.90
12386;DHT22;6257;57.634;18.310;2022-10-15T01:15:15;11.80;99.90
12386;DHT22;6257;57.634;18.310;2022-10-15T01:17:47;11.80;99.90
12386;DHT22;6257;57.634;18.310;2022-10-15T01:23:56;11.80;99.90
12386;DHT22;6257;57.634;18.310;2022-10-15T01:29:51;11.80;99.90
12386;DHT22;6257;57.634;18.310;2022-10-15T01:32:26;11.70;99.90
12386;DHT22;6257;57.634;18.310;2022-10-15T01:34:57;11.70;99.90
12386;DHT22;6257;57.634;18.310;2022-10-15T01:37:33;11.60;99.90
12386;DHT22;6257;57.634;18.310;2022-10-15T01:40:06;11.70;99.90
12386;DHT22;6257;57.634;18.310;2022-10-15T01:42:39;11.70;99.90
12386;DHT22;6257;57.634;18.310;2022-10-15T01:45:10;11.70;99.90
12386;DHT22;6257;57.634;18.310;2022-10-15T01:47:45;11.70;99.90
12386;DHT22;6257;57.634;18.310;2022-10-15T01:50:16;11.70;99.90
12386;DHT22;6257;57.634;18.310;2022-10-15T01:52:44;11.70;99.90
12386;DHT22;6257;57.634;18.310;2022-10-15T01:55:13;11.70;99.90
12386;DHT22;6257;57.634;18.310;2022-10-15T01:57:43;11.60;99.90
12386;DHT22;6257;57.634;18.310;2022-10-15T02:00:11;11.60;99.90
12386;DHT22;6257;57.634;18.310;2022-10-15T02:02:39;11.60;99.90
12386;DHT22;6257;57.634;18.310;2022-10-15T02:05:11;11.50;99.90
12386;DHT22;6257;57.634;18.310;2022-10-15T02:07:46;11.50;99.90
12386;DHT22;6257;57.634;18.310;2022-10-15T02:10:21;11.50;99.90
12386;DHT22;6257;57.634;18.310;2022-10-15T02:13:00;11.50;99.90
12386;DHT22;6257;57.634;18.310;2022-10-15T02:15:34;11.50;99.90
12386;DHT22;6257;57.634;18.310;2022-10-15T02:18:08;11.40;99.90
12386;DHT22;6257;57.634;18.310;2022-10-15T02:20:39;11.40;99.90
12386;DHT22;6257;57.634;18.310;2022-10-15T02:23:14;11.40;99.90
12386;DHT22;6257;57.634;18.310;2022-10-15T02:25:43;11.40;99.90
12386;DHT22;6257;57.634;18.310;2022-10-15T02:28:12;11.30;99.90
12386;DHT22;6257;57.634;18.310;2022-10-15T02:30:41;11.40;99.90
12386;DHT22;6257;57.634;18.310;2022-10-15T02:33:11;11.40;99.90
12386;DHT22;6257;57.634;18.310;2022-10-15T02:35:39;11.40;99.90
12386;DHT22;6257;57.634;18.310;2022-10-15T02:38:10;11.40;99.90
12386;DHT22;6257;57.634;18.310;2022-10-15T02:40:41;11.40;99.90
12386;DHT22;6257;57.634;18.310;2022-10-15T02:43:12;11.40;99.90
12386;DHT22;6257;57.634;18.310;2022-10-15T02:45:39;11.40;99.90
12386;DHT22;6257;57.634;18.310;2022-10-15T02:48:07;11.30;99.90
12386;DHT22;6257;57.634;18.310;2022-10-15T02:50:35;11.30;99.90
12386;DHT22;6257;57.634;18.310;2022-10-15T02:53:02;11.20;99.90
12386;DHT22;6257;57.634;18.310;2022-10-15T02:55:29;11.20;99.90
12386;DHT22;6257;57.634;18.310;2022-10-15T02:57:56;11.20;99.90
12386;DHT22;6257;57.634;18.310;2022-10-15T03:00:23;11.20;99.90
12386;DHT22;6257;57.634;18.310;2022-10-15T03:02:50;11.20;99.90
12386;DHT22;6257;57.634;18.310;2022-10-15T03:05:17;11.20;99.90
12386;DHT22;6257;57.634;18.310;2022-10-15T03:07:46;11.10;99.90
12386;DHT22;6257;57.634;18.310;2022-10-15T03:10:13;11.10;99.90
12386;DHT22;6257;57.634;18.310;2022-10-15T03:12:39;11.10;99.90
12386;DHT22;6257;57.634;18.310;2022-10-15T03:15:07;11.10;99.90
12386;DHT22;6257;57.634;18.310;2022-10-15T03:17:34;11.00;99.90
12386;DHT22;6257;57.634;18.310;2022-10-15T03:20:01;11.10;99.90
12386;DHT22;6257;57.634;18.310;2022-10-15T03:22:29;11.00;99.90
12386;DHT22;6257;57.634;18.310;2022-10-15T03:24:57;11.00;99.90
12386;DHT22;6257;57.634;18.310;2022-10-15T03:27:24;10.90;99.90
12386;DHT22;6257;57.634;18.310;2022-10-15T03:29:51;10.90;99.90
12386;DHT22;6257;57.634;18.310;2022-10-15T03:32:19;10.90;99.90
12386;DHT22;6257;57.634;18.310;2022-10-15T03:34:46;10.90;99.90
12386;DHT22;6257;57.634;18.310;2022-10-15T03:37:12;10.80;99.90
12386;DHT22;6257;57.634;18.310;2022-10-15T03:39:39;10.80;99.90
12386;DHT22;6257;57.634;18.310;2022-10-15T03:42:08;10.90;99.90
12386;DHT22;6257;57.634;18.310;2022-10-15T03:44:35;10.90;99.90
12386;DHT22;6257;57.634;18.310;2022-10-15T03:47:02;10.90;99.90
12386;DHT22;6257;57.634;18.310;2022-10-15T03:49:29;10.90;99.90
12386;DHT22;6257;57.634;18.310;2022-10-15T03:51:56;10.90;99.90
12386;DHT22;6257;57.634;18.310;2022-10-15T03:54:23;10.80;99.90
12386;DHT22;6257;57.634;18.310;2022-10-15T03:56:50;10.80;99.90
12386;DHT22;6257;57.634;18.310;2022-10-15T03:59:18;10.80;99.90
12386;DHT22;6257;57.634;18.310;2022-10-15T04:01:45;10.80;99.90
12386;DHT22;6257;57.634;18.310;2022-10-15T04:04:12;10.80;99.90
12386;DHT22;6257;57.634;18.310;2022-10-15T04:06:39;10.80;99.90
12386;DHT22;6257;57.634;18.310;2022-10-15T04:09:08;10.80;99.90
12386;DHT22;6257;57.634;18.310;2022-10-15T04:11:35;10.80;99.90
12386;DHT22;6257;57.634;18.310;2022-10-15T04:14:02;10.70;99.90
12386;DHT22;6257;57.634;18.310;2022-10-15T04:16:31;10.70;99.90
12386;DHT22;6257;57.634;18.310;2022-10-15T04:18:58;10.80;99.90
12386;DHT22;6257;57.634;18.310;2022-10-15T04:21:25;10.80;99.90
12386;DHT22;6257;57.634;18.310;2022-10-15T04:23:52;10.80;99.90
12386;DHT22;6257;57.634;18.310;2022-10-15T04:26:19;10.80;99.90
12386;DHT22;6257;57.634;18.310;2022-10-15T04:28:46;10.80;99.90
12386;DHT22;6257;57.634;18.310;2022-10-15T04:31:13;10.70;99.90
12386;DHT22;6257;57.634;18.310;2022-10-15T04:33:42;10.70;99.90
12386;DHT22;6257;57.634;18.310;2022-10-15T04:36:11;10.70;99.90
12386;DHT22;6257;57.634;18.310;2022-10-15T04:38:39;10.70;99.90
12386;DHT22;6257;57.634;18.310;2022-10-15T04:41:08;10.70;99.90
12386;DHT22;6257;57.634;18.310;2022-10-15T04:43:36;10.70;99.90
12386;DHT22;6257;57.634;18.310;2022-10-15T04:46:04;10.70;99.90
12386;DHT22;6257;57.634;18.310;2022-10-15T04:48:33;10.70;99.90
12386;DHT22;6257;57.634;18.310;2022-10-15T04:51:06;10.70;99.90
12386;DHT22;6257;57.634;18.310;2022-10-15T04:53:34;10.70;99.90
12386;DHT22;6257;57.634;18.310;2022-10-15T04:56:03;10.60;99.90
12386;DHT22;6257;57.634;18.310;2022-10-15T04:58:31;10.60;99.90
12386;DHT22;6257;57.634;18.310;2022-10-15T05:00:59;10.50;99.90
12386;DHT22;6257;57.634;18.310;2022-10-15T05:03:27;10.50;99.90
12386;DHT22;6257;57.634;18.310;2022-10-15T05:05:59;10.50;99.90
12386;DHT22;6257;57.634;18.310;2022-10-15T05:08:28;10.50;99.90
12386;DHT22;6257;57.634;18.310;2022-10-15T05:10:59;10.40;99.90
12386;DHT22;6257;57.634;18.310;2022-10-15T05:13:26;10.50;99.90
12386;DHT22;6257;57.634;18.310;2022-10-15T05:15:53;10.50;99.90
12386;DHT22;6257;57.634;18.310;2022-10-15T05:18:20;10.60;99.90
12386;DHT22;6257;57.634;18.310;2022-10-15T05:20:46;10.60;99.90
12386;DHT22;6257;57.634;18.310;2022-10-15T05:23:14;10.60;99.90
12386;DHT22;6257;57.634;18.310;2022-10-15T05:25:42;10.70;99.90
12386;DHT22;6257;57.634;18.310;2022-10-15T05:28:09;10.70;99.90
12386;DHT22;6257;57.634;18.310;2022-10-15T05:30:36;10.70;99.90
12386;DHT22;6257;57.634;18.310;2022-10-15T05:33:03;10.70;99.90
12386;DHT22;6257;57.634;18.310;2022-10-15T05:35:30;10.70;99.90
12386;DHT22;6257;57.634;18.310;2022-10-15T05:37:57;10.70;99.90
12386;DHT22;6257;57.634;18.310;2022-10-15T05:40:24;10.70;99.90
12386;DHT22;6257;57.634;18.310;2022-10-15T05:42:52;10.70;99.90
12386;DHT22;6257;57.634;18.310;2022-10-15T05:45:19;10.70;99.90
12386;DHT22;6257;57.634;18.310;2022-10-15T05:47:46;10.70;99.90
12386;DHT22;6257;57.634;18.310;2022-10-15T05:50:13;10.70;99.90
12386;DHT22;6257;57.634;18.310;2022-10-15T05:52:40;10.60;99.90
12386;DHT22;6257;57.634;18.310;2022-10-15T05:55:08;10.70;99.90
12386;DHT22;6257;57.634;18.310;2022-10-15T05:57:35;10.70;99.90
12386;DHT22;6257;57.634;18.310;2022-10-15T06:00:04;10.70;99.90
12386;DHT22;6257;57.634;18.310;2022-10-15T06:02:31;10.70;99.90
12386;DHT22;6257;57.634;18.310;2022-10-15T06:04:58;10.80;99.90
12386;DHT22;6257;57.634;18.310;2022-10-15T06:07:25;10.80;99.90
12386;DHT22;6257;57.634;18.310;2022-10-15T06:09:53;10.80;99.90
12386;DHT22;6257;57.634;18.310;2022-10-15T06:12:20;10.80;99.90
12386;DHT22;6257;57.634;18.310;2022-10-15T06:14:47;10.90;99.90
12386;DHT22;6257;57.634;18.310;2022-10-15T06:17:15;10.90;99.90
12386;DHT22;6257;57.634;18.310;2022-10-15T06:19:42;11.00;99.90
12386;DHT22;6257;57.634;18.310;2022-10-15T06:22:09;11.00;99.90
12386;DHT22;6257;57.634;18.310;2022-10-15T06:24:36;11.00;99.90
12386;DHT22;6257;57.634;18.310;2022-10-15T06:27:03;11.10;99.90
12386;DHT22;6257;57.634;18.310;2022-10-15T06:29:30;11.10;99.90
12386;DHT22;6257;57.634;18.310;2022-10-15T06:31:57;11.20;99.90
12386;DHT22;6257;57.634;18.310;2022-10-15T06:34:25;11.30;99.90
12386;DHT22;6257;57.634;18.310;2022-10-15T06:36:52;11.30;99.90
12386;DHT22;6257;57.634;18.310;2022-10-15T06:39:19;11.40;99.90
12386;DHT22;6257;57.634;18.310;2022-10-15T06:41:46;11.40;99.90
12386;DHT22;6257;57.634;18.310;2022-10-15T06:44:13;11.40;99.90
12386;DHT22;6257;57.634;18.310;2022-10-15T06:46:40;11.40;99.90
12386;DHT22;6257;57.634;18.310;2022-10-15T06:49:07;11.50;99.90
12386;DHT22;6257;57.634;18.310;2022-10-15T06:51:35;11.50;99.90
12386;DHT22;6257;57.634;18.310;2022-10-15T06:54:03;11.50;99.90
12386;DHT22;6257;57.634;18.310;2022-10-15T06:56:30;11.50;99.90
12386;DHT22;6257;57.634;18.310;2022-10-15T06:58:57;11.50;99.90
12386;DHT22;6257;57.634;18.310;2022-10-15T07:01:24;11.50;99.90
12386;DHT22;6257;57.634;18.310;2022-10-15T07:03:50;11.60;99.90
12386;DHT22;6257;57.634;18.310;2022-10-15T07:06:17;11.60;99.90
12386;DHT22;6257;57.634;18.310;2022-10-15T07:08:46;11.70;99.90
12386;DHT22;6257;57.634;18.310;2022-10-15T07:11:13;11.70;99.90
12386;DHT22;6257;57.634;18.310;2022-10-15T07:13:40;11.80;99.90
12386;DHT22;6257;57.634;18.310;2022-10-15T07:16:09;11.90;99.90
12386;DHT22;6257;57.634;18.310;2022-10-15T07:18:37;12.00;99.90
12386;DHT22;6257;57.634;18.310;2022-10-15T07:21:06;12.10;99.90
12386;DHT22;6257;57.634;18.310;2022-10-15T07:23:33;12.20;99.90
12386;DHT22;6257;57.634;18.310;2022-10-15T07:26:01;12.20;99.90
12386;DHT22;6257;57.634;18.310;2022-10-15T07:28:29;12.30;99.90
12386;DHT22;6257;57.634;18.310;2022-10-15T07:30:59;12.30;99.90
12386;DHT22;6257;57.634;18.310;2022-10-15T07:33:27;12.20;99.90
12386;DHT22;6257;57.634;18.310;2022-10-15T07:35:54;12.30;99.90
12386;DHT22;6257;57.634;18.310;2022-10-15T07:38:21;12.40;99.90
12386;DHT22;6257;57.634;18.310;2022-10-15T07:40:48;12.40;99.90
12386;DHT22;6257;57.634;18.310;2022-10-15T07:43:16;12.50;99.90
12386;DHT22;6257;57.634;18.310;2022-10-15T07:45:46;12.60;99.90
12386;DHT22;6257;57.634;18.310;2022-10-15T07:48:14;12.70;99.90
12386;DHT22;6257;57.634;18.310;2022-10-15T07:50:41;12.80;99.90
12386;DHT22;6257;57.634;18.310;2022-10-15T07:53:08;13.00;99.90
12386;DHT22;6257;57.634;18.310;2022-10-15T07:55:35;13.40;99.90
12386;DHT22;6257;57.634;18.310;2022-10-15T07:58:02;13.60;99.90
12386;DHT22;6257;57.634;18.310;2022-10-15T08:00:34;13.60;99.90
12386;DHT22;6257;57.634;18.310;2022-10-15T08:03:01;13.50;99.90
12386;DHT22;6257;57.634;18.310;2022-10-15T08:05:28;13.50;99.90
12386;DHT22;6257;57.634;18.310;2022-10-15T08:07:55;13.60;99.90
12386;DHT22;6257;57.634;18.310;2022-10-15T08:10:22;13.60;99.90
12386;DHT22;6257;57.634;18.310;2022-10-15T08:12:48;13.60;99.90
12386;DHT22;6257;57.634;18.310;2022-10-15T08:15:15;13.50;99.90
12386;DHT22;6257;57.634;18.310;2022-10-15T08:17:44;13.40;99.90
12386;DHT22;6257;57.634;18.310;2022-10-15T08:20:11;13.30;99.90
12386;DHT22;6257;57.634;18.310;2022-10-15T08:22:38;13.20;99.90
12386;DHT22;6257;57.634;18.310;2022-10-15T08:25:05;13.10;99.90
12386;DHT22;6257;57.634;18.310;2022-10-15T08:27:32;13.20;99.90
12386;DHT22;6257;57.634;18.310;2022-10-15T08:29:59;13.20;99.90
12386;DHT22;6257;57.634;18.310;2022-10-15T08:32:26;13.30;99.90
12386;DHT22;6257;57.634;18.310;2022-10-15T08:34:55;13.40;99.90
12386;DHT22;6257;57.634;18.310;2022-10-15T08:37:21;13.50;99.90
12386;DHT22;6257;57.634;18.310;2022-10-15T08:39:48;13.60;99.90
12386;DHT22;6257;57.634;18.310;2022-10-15T08:42:18;13.70;99.90
12386;DHT22;6257;57.634;18.310;2022-10-15T08:44:49;13.80;99.90
12386;DHT22;6257;57.634;18.310;2022-10-15T08:47:26;13.90;99.90
12386;DHT22;6257;57.634;18.310;2022-10-15T08:49:58;14.00;99.90
12386;DHT22;6257;57.634;18.310;2022-10-15T08:52:37;14.00;99.90
12386;DHT22;6257;57.634;18.310;2022-10-15T08:55:09;14.10;99.90
12386;DHT22;6257;57.634;18.310;2022-10-15T08:57:40;14.10;99.90
12386;DHT22;6257;57.634;18.310;2022-10-15T09:00:13;14.00;99.90
12386;DHT22;6257;57.634;18.310;2022-10-15T09:02:49;14.00;99.90
12386;DHT22;6257;57.634;18.310;2022-10-15T09:05:33;14.10;99.90
12386;DHT22;6257;57.634;18.310;2022-10-15T09:08:11;14.10;99.90
12386;DHT22;6257;57.634;18.310;2022-10-15T09:10:44;14.20;99.90
12386;DHT22;6257;57.634;18.310;2022-10-15T09:13:14;14.20;99.90
12386;DHT22;6257;57.634;18.310;2022-10-15T09:15:48;14.30;99.90
12386;DHT22;6257;57.634;18.310;2022-10-15T09:18:20;14.20;99.90
12386;DHT22;6257;57.634;18.310;2022-10-15T09:20:50;14.30;99.90
12386;DHT22;6257;57.634;18.310;2022-10-15T09:23:20;14.30;99.90
12386;DHT22;6257;57.634;18.310;2022-10-15T09:25:52;14.30;99.90
12386;DHT22;6257;57.634;18.310;2022-10-15T09:28:24;14.30;99.90
12386;DHT22;6257;57.634;18.310;2022-10-15T09:30:54;14.30;99.90
12386;DHT22;6257;57.634;18.310;2022-10-15T09:33:32;14.40;99.90
12386;DHT22;6257;57.634;18.310;2022-10-15T09:39:02;14.60;99.90
12386;DHT22;6257;57.634;18.310;2022-10-15T09:41:39;14.70;99.90
12386;DHT22;6257;57.634;18.310;2022-10-15T09:44:09;14.80;99.90
12386;DHT22;6257;57.634;18.310;2022-10-15T09:46:43;14.90;99.90
12386;DHT22;6257;57.634;18.310;2022-10-15T09:49:13;14.90;99.90
12386;DHT22;6257;57.634;18.310;2022-10-15T09:51:49;15.00;99.90
12386;DHT22;6257;57.634;18.310;2022-10-15T09:54:23;15.10;99.90
12386;DHT22;6257;57.634;18.310;2022-10-15T09:56:53;15.00;99.90
12386;DHT22;6257;57.634;18.310;2022-10-15T09:59:23;15.10;99.90
12386;DHT22;6257;57.634;18.310;2022-10-15T10:01:59;15.00;99.90
12386;DHT22;6257;57.634;18.310;2022-10-15T10:04:27;15.00;99.90
12386;DHT22;6257;57.634;18.310;2022-10-15T10:06:57;15.00;99.90
12386;DHT22;6257;57.634;18.310;2022-10-15T10:09:28;15.00;99.90
12386;DHT22;6257;57.634;18.310;2022-10-15T10:11:59;15.00;99.90
12386;DHT22;6257;57.634;18.310;2022-10-15T10:14:28;14.90;99.90
12386;DHT22;6257;57.634;18.310;2022-10-15T10:17:17;14.80;99.90
12386;DHT22;6257;57.634;18.310;2022-10-15T10:19:53;14.70;99.90
12386;DHT22;6257;57.634;18.310;2022-10-15T10:22:29;14.70;99.90
12386;DHT22;6257;57.634;18.310;2022-10-15T10:24:56;14.70;99.90
12386;DHT22;6257;57.634;18.310;2022-10-15T10:27:24;14.80;99.90
12386;DHT22;6257;57.634;18.310;2022-10-15T10:29:55;14.90;99.90
12386;DHT22;6257;57.634;18.310;2022-10-15T10:32:27;15.00;99.90
12386;DHT22;6257;57.634;18.310;2022-10-15T10:34:55;15.00;99.90
12386;DHT22;6257;57.634;18.310;2022-10-15T10:37:23;14.90;99.90
12386;DHT22;6257;57.634;18.310;2022-10-15T10:39:54;14.90;99.90
12386;DHT22;6257;57.634;18.310;2022-10-15T10:42:29;14.80;99.90
12386;DHT22;6257;57.634;18.310;2022-10-15T10:45:17;14.70;99.90
12386;DHT22;6257;57.634;18.310;2022-10-15T10:47:44;14.70;99.90
12386;DHT22;6257;57.634;18.310;2022-10-15T10:50:28;14.60;99.90
12386;DHT22;6257;57.634;18.310;2022-10-15T10:52:56;14.70;99.90
12386;DHT22;6257;57.634;18.310;2022-10-15T10:55:33;14.70;99.90
12386;DHT22;6257;57.634;18.310;2022-10-15T10:58:03;14.80;99.90
12386;DHT22;6257;57.634;18.310;2022-10-15T11:00:38;14.70;99.90
12386;DHT22;6257;57.634;18.310;2022-10-15T11:03:05;14.70;99.90
12386;DHT22;6257;57.634;18.310;2022-10-15T11:05:39;14.70;99.90
12386;DHT22;6257;57.634;18.310;2022-10-15T11:08:13;14.80;99.90
12386;DHT22;6257;57.634;18.310;2022-10-15T11:10:50;14.80;99.90
12386;DHT22;6257;57.634;18.310;2022-10-15T11:13:33;14.90;99.90
12386;DHT22;6257;57.634;18.310;2022-10-15T11:16:09;15.00;99.90
12386;DHT22;6257;57.634;18.310;2022-10-15T11:18:51;15.00;99.90
12386;DHT22;6257;57.634;18.310;2022-10-15T11:21:26;14.90;99.90
12386;DHT22;6257;57.634;18.310;2022-10-15T11:24:09;15.00;99.90
12386;DHT22;6257;57.634;18.310;2022-10-15T11:26:51;15.00;99.90
12386;DHT22;6257;57.634;18.310;2022-10-15T11:29:29;15.00;99.90
12386;DHT22;6257;57.634;18.310;2022-10-15T11:32:07;15.00;99.90
12386;DHT22;6257;57.634;18.310;2022-10-15T11:34:49;15.00;99.90
12386;DHT22;6257;57.634;18.310;2022-10-15T11:37:27;15.00;99.90
12386;DHT22;6257;57.634;18.310;2022-10-15T11:40:13;14.90;99.90
12386;DHT22;6257;57.634;18.310;2022-10-15T11:42:50;14.90;99.90
12386;DHT22;6257;57.634;18.310;2022-10-15T11:45:48;14.80;99.90
12386;DHT22;6257;57.634;18.310;2022-10-15T11:48:24;14.80;99.90
12386;DHT22;6257;57.634;18.310;2022-10-15T11:50:58;14.80;99.90
12386;DHT22;6257;57.634;18.310;2022-10-15T11:56:32;14.90;99.90
12386;DHT22;6257;57.634;18.310;2022-10-15T11:59:05;15.00;99.90
12386;DHT22;6257;57.634;18.310;2022-10-15T12:01:43;15.00;99.90
12386;DHT22;6257;57.634;18.310;2022-10-15T12:04:14;15.10;99.90
12386;DHT22;6257;57.634;18.310;2022-10-15T12:06:47;15.20;99.90
12386;DHT22;6257;57.634;18.310;2022-10-15T12:09:20;15.20;99.90
12386;DHT22;6257;57.634;18.310;2022-10-15T12:11:52;15.20;99.90
12386;DHT22;6257;57.634;18.310;2022-10-15T12:14:26;15.20;99.90
12386;DHT22;6257;57.634;18.310;2022-10-15T12:17:03;15.20;99.90
12386;DHT22;6257;57.634;18.310;2022-10-15T12:19:37;15.20;99.90
12386;DHT22;6257;57.634;18.310;2022-10-15T12:22:08;15.30;99.90
12386;DHT22;6257;57.634;18.310;2022-10-15T12:24:53;15.30;99.90
12386;DHT22;6257;57.634;18.310;2022-10-15T12:27:27;15.40;99.90
12386;DHT22;6257;57.634;18.310;2022-10-15T12:30:22;15.40;99.90
12386;DHT22;6257;57.634;18.310;2022-10-15T12:32:52;15.50;99.90
12386;DHT22;6257;57.634;18.310;2022-10-15T12:35:35;15.50;99.90
12386;DHT22;6257;57.634;18.310;2022-10-15T12:38:27;15.40;99.90
12386;DHT22;6257;57.634;18.310;2022-10-15T12:40:57;15.50;99.90
12386;DHT22;6257;57.634;18.310;2022-10-15T12:43:25;15.60;99.90
12386;DHT22;6257;57.634;18.310;2022-10-15T12:45:56;15.70;99.90
12386;DHT22;6257;57.634;18.310;2022-10-15T12:48:30;15.70;99.90
12386;DHT22;6257;57.634;18.310;2022-10-15T12:54:33;15.50;99.90
12386;DHT22;6257;57.634;18.310;2022-10-15T12:57:02;15.30;99.90
12386;DHT22;6257;57.634;18.310;2022-10-15T12:59:55;15.20;99.90
12386;DHT22;6257;57.634;18.310;2022-10-15T13:02:36;15.20;99.90
12386;DHT22;6257;57.634;18.310;2022-10-15T13:05:05;15.20;99.90
12386;DHT22;6257;57.634;18.310;2022-10-15T13:07:37;15.10;99.90
12386;DHT22;6257;57.634;18.310;2022-10-15T13:10:17;15.00;99.90
12386;DHT22;6257;57.634;18.310;2022-10-15T13:12:50;15.00;99.90
12386;DHT22;6257;57.634;18.310;2022-10-15T13:15:18;15.00;99.90
12386;DHT22;6257;57.634;18.310;2022-10-15T13:17:47;15.00;99.90
12386;DHT22;6257;57.634;18.310;2022-10-15T13:20:28;15.00;99.90
12386;DHT22;6257;57.634;18.310;2022-10-15T13:23:07;15.10;99.90
12386;DHT22;6257;57.634;18.310;2022-10-15T13:25:34;15.10;99.90
12386;DHT22;6257;57.634;18.310;2022-10-15T13:28:28;15.10;99.90
12386;DHT22;6257;57.634;18.310;2022-10-15T13:30:49;15.20;99.90
12386;DHT22;6257;57.634;18.310;2022-10-15T13:33:18;15.20;99.90
12386;DHT22;6257;57.634;18.310;2022-10-15T13:35:45;15.20;99.90
12386;DHT22;6257;57.634;18.310;2022-10-15T13:38:19;15.20;99.90
12386;DHT22;6257;57.634;18.310;2022-10-15T13:40:48;15.20;99.90
12386;DHT22;6257;57.634;18.310;2022-10-15T13:43:17;15.20;99.90
12386;DHT22;6257;57.634;18.310;2022-10-15T13:45:49;15.10;99.90
12386;DHT22;6257;57.634;18.310;2022-10-15T13:48:21;15.10;99.90
12386;DHT22;6257;57.634;18.310;2022-10-15T13:50:51;15.00;99.90
12386;DHT22;6257;57.634;18.310;2022-10-15T13:53:26;15.00;99.90
12386;DHT22;6257;57.634;18.310;2022-10-15T13:55:55;15.00;99.90
12386;DHT22;6257;57.634;18.310;2022-10-15T13:58:24;15.00;99.90
12386;DHT22;6257;57.634;18.310;2022-10-15T14:00:56;15.00;99.90
12386;DHT22;6257;57.634;18.310;2022-10-15T14:03:27;15.00;99.90
12386;DHT22;6257;57.634;18.310;2022-10-15T14:05:56;15.00;99.90
12386;DHT22;6257;57.634;18.310;2022-10-15T14:08:25;14.90;99.90
12386;DHT22;6257;57.634;18.310;2022-10-15T14:10:56;14.90;99.90
12386;DHT22;6257;57.634;18.310;2022-10-15T14:13:24;14.80;99.90
12386;DHT22;6257;57.634;18.310;2022-10-15T14:16:11;14.70;99.90
12386;DHT22;6257;57.634;18.310;2022-10-15T14:18:43;14.70;99.90
12386;DHT22;6257;57.634;18.310;2022-10-15T14:21:12;14.70;99.90
12386;DHT22;6257;57.634;18.310;2022-10-15T14:23:40;14.70;99.90
12386;DHT22;6257;57.634;18.310;2022-10-15T14:26:09;14.60;99.90
12386;DHT22;6257;57.634;18.310;2022-10-15T14:28:37;14.60;99.90
12386;DHT22;6257;57.634;18.310;2022-10-15T14:31:06;14.60;99.90
12386;DHT22;6257;57.634;18.310;2022-10-15T14:33:43;14.60;99.90
12386;DHT22;6257;57.634;18.310;2022-10-15T14:36:23;14.50;99.90
12386;DHT22;6257;57.634;18.310;2022-10-15T14:38:51;14.40;99.90
12386;DHT22;6257;57.634;18.310;2022-10-15T14:41:23;14.30;99.90
12386;DHT22;6257;57.634;18.310;2022-10-15T14:44:02;14.20;99.90
12386;DHT22;6257;57.634;18.310;2022-10-15T14:46:37;14.20;99.90
12386;DHT22;6257;57.634;18.310;2022-10-15T14:49:22;14.10;99.90
12386;DHT22;6257;57.634;18.310;2022-10-15T14:51:55;14.00;99.90
12386;DHT22;6257;57.634;18.310;2022-10-15T14:54:26;13.90;99.90
12386;DHT22;6257;57.634;18.310;2022-10-15T14:56:56;13.80;99.90
12386;DHT22;6257;57.634;18.310;2022-10-15T14:59:29;13.80;99.90
12386;DHT22;6257;57.634;18.310;2022-10-15T15:01:59;13.80;99.90
12386;DHT22;6257;57.634;18.310;2022-10-15T15:04:36;13.80;99.90
12386;DHT22;6257;57.634;18.310;2022-10-15T15:07:15;13.70;99.90
12386;DHT22;6257;57.634;18.310;2022-10-15T15:09:46;13.70;99.90
12386;DHT22;6257;57.634;18.310;2022-10-15T15:12:19;13.70;99.90
12386;DHT22;6257;57.634;18.310;2022-10-15T15:14:47;13.60;99.90
12386;DHT22;6257;57.634;18.310;2022-10-15T15:17:17;13.60;99.90
12386;DHT22;6257;57.634;18.310;2022-10-15T15:19:45;13.60;99.90
12386;DHT22;6257;57.634;18.310;2022-10-15T15:22:14;13.60;99.90
12386;DHT22;6257;57.634;18.310;2022-10-15T15:24:42;13.50;99.90
12386;DHT22;6257;57.634;18.310;2022-10-15T15:27:20;13.50;99.90
12386;DHT22;6257;57.634;18.310;2022-10-15T15:29:48;13.50;99.90
12386;DHT22;6257;57.634;18.310;2022-10-15T15:32:16;13.50;99.90
12386;DHT22;6257;57.634;18.310;2022-10-15T15:34:44;13.40;99.90
12386;DHT22;6257;57.634;18.310;2022-10-15T15:37:13;13.40;99.90
12386;DHT22;6257;57.634;18.310;2022-10-15T15:39:40;13.40;99.90
12386;DHT22;6257;57.634;18.310;2022-10-15T15:42:14;13.30;99.90
12386;DHT22;6257;57.634;18.310;2022-10-15T15:44:41;13.30;99.90
12386;DHT22;6257;57.634;18.310;2022-10-15T15:47:08;13.30;99.90
12386;DHT22;6257;57.634;18.310;2022-10-15T15:49:36;13.20;99.90
12386;DHT22;6257;57.634;18.310;2022-10-15T15:52:05;13.20;99.90
12386;DHT22;6257;57.634;18.310;2022-10-15T15:54:33;13.20;99.90
12386;DHT22;6257;57.634;18.310;2022-10-15T15:57:00;13.10;99.90
12386;DHT22;6257;57.634;18.310;2022-10-15T15:59:27;13.10;99.90
12386;DHT22;6257;57.634;18.310;2022-10-15T16:01:54;13.10;99.90
12386;DHT22;6257;57.634;18.310;2022-10-15T16:04:21;13.10;99.90
12386;DHT22;6257;57.634;18.310;2022-10-15T16:06:48;13.10;99.90